Time;durP1;ratioP1;P1;durP2;ratioP2;P2;SDS_P1;SDS_P2;PMS_P1;PMS_P2;Temp;Humidity;BMP_temperature;BMP_pressure;BME280_temperature;BME280_humidity;BME280_pressure;Samples;Min_cycle;Max_cycle;Signal;HPM_P1;HPM_P2
2023/06/15 00:00:17;;;;;;;15.20;12.07;;;17.30;99.90;;;16.90;100.00;101293.69;4170101;28;20405;-76
2023/06/15 00:02:18;;;;;;;16.37;12.93;;;17.30;99.90;;;16.84;100.00;101286.44;4187882;28;20022;-76
2023/06/15 00:04:19;;;;;;;15.52;12.50;;;17.30;99.90;;;16.83;100.00;101281.28;4187565;28;20118;-76
2023/06/15 00:06:19;;;;;;;13.77;12.18;;;17.30;99.90;;;16.83;100.00;101292.75;4137593;28;20030;-76
2023/06/15 00:08:20;;;;;;;13.75;12.18;;;17.30;99.90;;;16.77;100.00;101296.16;4169863;28;20064;-77
2023/06/15 00:10:21;;;;;;;13.15;11.30;;;17.30;99.90;;;16.79;100.00;101295.97;4169969;28;20029;-77
2023/06/15 00:12:23;;;;;;;14.18;12.68;;;17.30;99.90;;;16.74;100.00;101285.84;4169858;28;20030;-76
2023/06/15 00:14:24;;;;;;;12.48;11.25;;;17.30;99.90;;;16.74;100.00;101293.03;4187930;28;20110;-76
2023/06/15 00:16:30;;;;;;;17.95;12.48;;;17.20;99.90;;;16.66;100.00;101282.47;4187628;28;20028;-77
2023/06/15 00:18:37;;;;;;;14.98;13.25;;;17.20;99.90;;;16.72;100.00;101295.88;4187753;28;20036;-76
2023/06/15 00:20:39;;;;;;;14.07;12.55;;;17.20;99.90;;;16.74;100.00;101301.00;4170629;28;20028;-76
2023/06/15 00:22:45;;;;;;;12.25;10.77;;;17.20;99.90;;;16.70;100.00;101294.38;4187283;28;20585;-76
2023/06/15 00:24:46;;;;;;;12.60;11.15;;;17.20;99.90;;;16.72;100.00;101298.53;4153950;28;20085;-77
2023/06/15 00:26:47;;;;;;;15.63;11.13;;;17.20;99.90;;;16.67;100.00;101289.41;4187303;28;20484;-76
2023/06/15 00:28:48;;;;;;;12.90;11.60;;;17.20;99.90;;;16.64;100.00;101289.78;4169798;28;20052;-76
2023/06/15 00:30:49;;;;;;;11.20;10.05;;;17.20;99.90;;;16.67;100.00;101300.06;4169739;28;20029;-76
2023/06/15 00:32:50;;;;;;;12.65;11.38;;;17.20;99.90;;;16.61;100.00;101292.84;4169588;28;20112;-76
2023/06/15 00:34:51;;;;;;;21.05;13.50;;;17.10;99.90;;;16.66;100.00;101307.28;4187259;28;20025;-76
2023/06/15 00:36:52;;;;;;;19.10;13.75;;;17.10;99.90;;;16.61;100.00;101288.31;4187476;28;20515;-76
2023/06/15 00:38:52;;;;;;;23.38;13.70;;;17.10;99.90;;;16.71;100.00;101301.38;4169512;28;20100;-76
2023/06/15 00:40:53;;;;;;;19.02;14.27;;;17.10;99.90;;;16.69;100.00;101295.41;4153315;28;20029;-76
2023/06/15 00:42:54;;;;;;;17.50;13.50;;;17.20;99.90;;;16.69;100.00;101298.91;4169522;28;20026;-76
2023/06/15 00:44:56;;;;;;;16.70;12.65;;;17.10;99.90;;;16.63;100.00;101293.47;4169310;28;20104;-76
2023/06/15 00:46:59;;;;;;;16.90;13.57;;;17.10;99.90;;;16.67;100.00;101300.06;4169382;28;20116;-76
2023/06/15 00:49:00;;;;;;;18.65;13.43;;;17.20;99.90;;;16.64;100.00;101305.78;4169223;28;20123;-77
2023/06/15 00:51:01;;;;;;;12.98;11.65;;;17.10;99.90;;;16.60;100.00;101300.00;4187033;28;20036;-77
2023/06/15 00:53:03;;;;;;;13.75;11.90;;;17.10;99.90;;;16.55;100.00;101300.53;4185653;28;20041;-76
2023/06/15 00:55:05;;;;;;;11.88;10.65;;;17.10;99.90;;;16.53;100.00;101301.69;4169410;28;20076;-76
2023/06/15 00:57:09;;;;;;;13.15;11.88;;;17.10;99.90;;;16.54;100.00;101309.53;4187007;28;20029;-76
2023/06/15 00:59:10;;;;;;;12.57;10.93;;;17.00;99.90;;;16.53;100.00;101310.50;4182630;28;20041;-76
2023/06/15 01:01:10;;;;;;;15.90;11.98;;;17.00;99.90;;;16.52;100.00;101308.84;4169238;28;20083;-76
2023/06/15 01:03:12;;;;;;;19.70;12.65;;;17.00;99.90;;;16.54;100.00;101306.06;4169518;28;20053;-76
2023/06/15 01:05:13;;;;;;;15.15;10.38;;;17.00;99.90;;;16.52;100.00;101311.50;4187039;28;20444;-76
2023/06/15 01:07:16;;;;;;;12.90;11.23;;;17.00;99.90;;;16.50;100.00;101312.69;4185842;28;20020;-76
2023/06/15 01:09:21;;;;;;;12.23;11.02;;;17.00;99.90;;;16.39;100.00;101300.66;4169371;28;20500;-77
2023/06/15 01:11:23;;;;;;;13.25;11.85;;;16.90;99.90;;;16.46;100.00;101314.06;4169258;28;20080;-76
2023/06/15 01:13:23;;;;;;;14.77;11.68;;;16.90;99.90;;;16.45;100.00;101315.91;4169051;28;20164;-76
2023/06/15 01:15:24;;;;;;;14.48;11.45;;;16.90;99.90;;;16.39;100.00;101305.16;4168929;28;20034;-76
2023/06/15 01:17:28;;;;;;;13.35;11.70;;;16.90;99.90;;;16.37;100.00;101313.31;4186757;28;20550;-77
2023/06/15 01:19:53;;;;;;;15.15;12.93;;;16.90;99.90;;;16.30;100.00;101315.06;4169264;28;20037;-76
2023/06/15 01:21:55;;;;;;;15.10;12.85;;;16.80;99.90;;;16.25;100.00;101312.06;4171516;28;20516;-76
2023/06/15 01:24:24;;;;;;;16.23;12.48;;;16.70;99.90;;;16.23;100.00;101313.28;4152192;28;20037;-76
2023/06/15 01:26:28;;;;;;;12.13;10.82;;;16.70;99.90;;;16.19;100.00;101318.13;4180413;28;20425;-76
2023/06/15 01:28:31;;;;;;;13.70;11.55;;;16.70;99.90;;;16.07;100.00;101297.44;4169154;28;20032;-76
2023/06/15 01:30:39;;;;;;;20.20;11.85;;;16.70;99.90;;;16.05;100.00;101303.75;4185106;28;20024;-76
2023/06/15 01:32:40;;;;;;;17.08;12.45;;;16.60;99.90;;;16.08;100.00;101315.06;4169082;28;20026;-76
2023/06/15 01:34:41;;;;;;;18.80;13.40;;;16.60;99.90;;;16.03;100.00;101310.28;4168669;28;20408;-76
2023/06/15 01:36:42;;;;;;;20.45;14.18;;;16.50;99.90;;;16.01;100.00;101304.28;4201639;28;20032;-76
2023/06/15 01:38:52;;;;;;;16.45;14.68;;;16.50;99.90;;;15.99;100.00;101308.97;4186124;28;20392;-76
2023/06/15 01:40:55;;;;;;;18.02;15.50;;;16.50;99.90;;;15.96;100.00;101301.34;4169777;28;20362;-76
2023/06/15 01:42:57;;;;;;;19.13;15.38;;;16.40;99.90;;;15.92;100.00;101310.66;4168673;28;20030;-76
2023/06/15 01:44:58;;;;;;;17.75;14.55;;;16.40;99.90;;;15.95;100.00;101312.97;4168581;28;20025;-76
2023/06/15 01:46:59;;;;;;;20.45;15.75;;;16.40;99.90;;;15.84;100.00;101308.06;4185184;28;20033;-76
2023/06/15 01:49:01;;;;;;;17.77;15.32;;;16.40;99.90;;;15.83;100.00;101317.88;4186158;28;20095;-76
2023/06/15 01:51:03;;;;;;;16.75;15.02;;;16.40;99.90;;;15.83;100.00;101325.06;4168472;28;20044;-76
2023/06/15 01:53:05;;;;;;;21.48;16.80;;;16.30;99.90;;;15.78;100.00;101309.59;4185865;28;20047;-76
2023/06/15 01:55:07;;;;;;;20.02;15.75;;;16.30;99.90;;;15.70;100.00;101303.50;4186136;28;20024;-76
2023/06/15 01:57:08;;;;;;;26.73;17.88;;;16.20;99.90;;;15.69;100.00;101305.34;4168569;28;20436;-76
2023/06/15 01:59:09;;;;;;;22.13;18.73;;;16.20;99.90;;;15.67;100.00;101310.00;4167255;28;20045;-76
2023/06/15 02:01:10;;;;;;;20.60;17.80;;;16.20;99.90;;;15.67;100.00;101309.19;4168232;28;20045;-76
2023/06/15 02:03:11;;;;;;;22.83;17.27;;;16.20;99.90;;;15.65;100.00;101313.84;4168398;28;20029;-76
2023/06/15 02:05:12;;;;;;;20.33;16.35;;;16.10;99.90;;;15.64;100.00;101306.88;4185890;28;20098;-76
2023/06/15 02:07:13;;;;;;;21.65;16.95;;;16.10;99.90;;;15.61;100.00;101310.72;4185760;28;20025;-76
2023/06/15 02:09:14;;;;;;;19.13;16.42;;;16.10;99.90;;;15.57;100.00;101308.56;4185683;28;20036;-76
2023/06/15 02:11:18;;;;;;;20.23;15.63;;;16.10;99.90;;;15.53;100.00;101310.72;4185962;28;20091;-76
2023/06/15 02:13:19;;;;;;;;;;;16.00;99.90;;;15.37;100.00;101298.34;4186170;28;20497;-76
2023/06/15 02:15:20;;;;;;;19.85;15.50;;;16.00;99.90;;;15.40;100.00;101310.44;4168206;28;19943;-76
2023/06/15 02:17:24;;;;;;;25.27;16.63;;;15.90;99.90;;;15.32;100.00;101308.63;4168041;28;20038;-76
2023/06/15 02:19:27;;;;;;;18.45;15.55;;;15.80;99.90;;;15.34;100.00;101316.47;4168450;28;20026;-76
2023/06/15 02:21:29;;;;;;;19.60;15.95;;;15.80;99.90;;;15.28;100.00;101312.66;4185756;28;20392;-76
2023/06/15 02:23:32;;;;;;;16.20;14.48;;;15.80;99.90;;;15.25;100.00;101313.00;4167496;28;20041;-76
2023/06/15 02:25:33;;;;;;;14.75;13.10;;;15.80;99.90;;;15.15;100.00;101306.22;4185610;28;20013;-76
2023/06/15 02:27:34;;;;;;;16.40;13.02;;;15.70;99.90;;;15.14;100.00;101315.22;4184378;28;20113;-76
2023/06/15 02:29:35;;;;;;;16.50;14.40;;;15.70;99.90;;;15.08;100.00;101314.06;4167936;28;20504;-76
2023/06/15 02:31:39;;;;;;;19.25;15.05;;;15.60;99.90;;;15.04;100.00;101310.09;4185422;28;20108;-76
2023/06/15 02:33:40;;;;;;;17.40;14.57;;;15.60;99.90;;;15.04;100.00;101312.75;4168355;28;20033;-76
2023/06/15 02:35:41;;;;;;;16.98;15.18;;;15.50;99.90;;;15.03;100.00;101308.44;4185489;28;20063;-76
2023/06/15 02:37:42;;;;;;;15.55;13.93;;;15.50;99.90;;;14.99;100.00;101308.94;4167510;28;20033;-76
2023/06/15 02:39:43;;;;;;;20.48;14.40;;;15.50;99.90;;;14.94;100.00;101306.78;4167803;28;20057;-76
2023/06/15 02:41:44;;;;;;;15.60;13.68;;;15.50;99.90;;;14.85;100.00;101297.19;4167744;28;20028;-76
2023/06/15 02:43:45;;;;;;;17.13;14.95;;;15.40;99.90;;;14.84;100.00;101306.19;4167901;28;20029;-76
2023/06/15 02:45:45;;;;;;;16.65;13.32;;;15.40;99.90;;;14.83;100.00;101310.66;4151288;28;20053;-76
2023/06/15 02:47:47;;;;;;;18.80;15.10;;;15.40;99.90;;;14.81;100.00;101302.00;4185300;28;20028;-76
2023/06/15 02:49:48;;;;;;;19.30;14.85;;;15.30;99.90;;;14.79;100.00;101303.19;4185361;28;20040;-76
2023/06/15 02:51:48;;;;;;;19.50;15.52;;;15.30;99.90;;;14.73;100.00;101296.72;4185552;28;20484;-76
2023/06/15 02:53:49;;;;;;;18.52;14.27;;;15.30;99.90;;;14.74;100.00;101300.22;4167433;28;20520;-76
2023/06/15 02:55:51;;;;;;;18.65;15.20;;;15.30;99.90;;;14.73;100.00;101296.72;4168402;28;20048;-76
2023/06/15 02:57:53;;;;;;;19.95;15.43;;;15.30;99.90;;;14.77;100.00;101307.84;4184405;28;20087;-77
2023/06/15 02:59:54;;;;;;;18.38;16.48;;;15.30;99.90;;;14.68;100.00;101290.25;4185410;28;20126;-76
2023/06/15 03:01:55;;;;;;;20.23;16.98;;;15.30;99.90;;;14.74;100.00;101297.56;4167551;28;20501;-77
2023/06/15 03:03:56;;;;;;;18.65;16.67;;;15.30;99.90;;;14.74;100.00;101300.22;4185151;28;20025;-76
2023/06/15 03:05:57;;;;;;;20.42;17.55;;;15.30;99.90;;;14.74;100.00;101300.22;4200609;28;20423;-76
2023/06/15 03:07:58;;;;;;;20.67;17.98;;;15.30;99.90;;;14.76;100.00;101306.16;4183864;28;20022;-76
2023/06/15 03:09:58;;;;;;;21.77;17.35;;;15.30;99.90;;;14.75;100.00;101299.22;4185113;28;20036;-76
2023/06/15 03:11:59;;;;;;;19.58;16.13;;;15.20;99.90;;;14.73;100.00;101306.50;4184809;28;20037;-77
2023/06/15 03:14:00;;;;;;;22.67;17.17;;;15.20;99.90;;;14.72;100.00;101305.72;4167253;28;20473;-76
2023/06/15 03:16:01;;;;;;;20.00;17.58;;;15.20;99.90;;;14.70;100.00;101306.84;4167562;28;20033;-76
2023/06/15 03:18:04;;;;;;;22.60;17.23;;;15.20;99.90;;;14.67;100.00;101309.84;4167399;28;20040;-76
2023/06/15 03:20:09;;;;;;;21.65;17.48;;;15.20;99.90;;;14.54;100.00;101285.66;4167348;28;20021;-76
2023/06/15 03:22:11;;;;;;;18.17;15.93;;;15.10;99.90;;;14.59;100.00;101299.25;4184736;28;20029;-76
2023/06/15 03:24:13;;;;;;;19.08;15.55;;;15.10;99.90;;;14.61;100.00;101307.84;4167426;28;20052;-76
2023/06/15 03:26:16;;;;;;;21.63;16.50;;;15.10;99.90;;;14.54;100.00;101293.63;4167549;28;20100;-76
2023/06/15 03:28:23;;;;;;;23.13;17.60;;;15.10;99.90;;;14.54;100.00;101293.63;4151211;28;20050;-76
2023/06/15 03:30:24;;;;;;;23.05;17.15;;;15.00;99.90;;;14.51;100.00;101297.44;4167545;28;20049;-76
2023/06/15 03:32:27;;;;;;;22.98;16.88;;;15.00;99.90;;;14.49;100.00;101298.56;4184886;28;20052;-76
2023/06/15 03:34:28;;;;;;;18.90;16.90;;;15.00;99.90;;;14.45;100.00;101295.47;4167519;28;20025;-76
2023/06/15 03:36:29;;;;;;;21.90;16.92;;;15.00;99.90;;;14.46;100.00;101296.25;4167005;28;20283;-76
2023/06/15 03:38:30;;;;;;;19.48;16.73;;;15.00;99.90;;;14.47;100.00;101305.88;4167236;28;20481;-76
2023/06/15 03:40:37;;;;;;;18.60;15.43;;;15.00;99.90;;;14.46;100.00;101298.91;4185058;28;20033;-76
2023/06/15 03:42:38;;;;;;;20.13;17.23;;;15.00;99.90;;;14.46;100.00;101307.72;4184712;28;20078;-76
2023/06/15 03:44:39;;;;;;;16.67;14.88;;;15.00;99.90;;;14.47;100.00;101308.53;4184813;28;20484;-76
2023/06/15 03:46:44;;;;;;;22.02;16.33;;;15.00;99.90;;;14.43;100.00;101310.69;4184922;28;20028;-76
2023/06/15 03:48:45;;;;;;;24.60;17.63;;;14.90;99.90;;;14.42;100.00;101313.53;4167667;28;20080;-76
2023/06/15 03:50:46;;;;;;;27.95;19.10;;;14.90;99.90;;;14.43;100.00;101312.50;4183445;28;20076;-76
2023/06/15 03:52:46;;;;;;;22.63;18.40;;;14.90;99.90;;;14.41;100.00;101312.69;4184394;28;20029;-76
2023/06/15 03:54:47;;;;;;;22.77;17.85;;;14.90;99.90;;;14.40;100.00;101311.03;4166932;28;20481;-76
2023/06/15 03:56:49;;;;;;;20.52;16.58;;;14.90;99.90;;;14.40;100.00;101305.72;4167216;28;20029;-76
2023/06/15 03:58:50;;;;;;;22.40;17.88;;;14.90;99.90;;;14.42;100.00;101300.25;4166957;28;20509;-76
2023/06/15 04:00:52;;;;;;;21.27;18.83;;;14.90;99.90;;;14.38;100.00;101303.25;4184605;28;20029;-76
2023/06/15 04:02:53;;;;;;;25.70;19.60;;;14.90;99.90;;;14.36;100.00;101304.41;4184694;28;20021;-76
2023/06/15 04:04:56;;;;;;;24.92;18.65;;;14.90;99.90;;;14.40;100.00;101306.56;4200311;28;20031;-76
2023/06/15 04:06:57;;;;;;;22.73;18.02;;;14.90;99.90;;;14.39;100.00;101309.41;4184666;28;20023;-76
2023/06/15 04:08:58;;;;;;;27.05;18.95;;;14.90;99.90;;;14.37;100.00;101301.59;4184331;28;20029;-76
2023/06/15 04:10:59;;;;;;;24.85;18.70;;;14.90;99.90;;;14.36;100.00;101301.75;4167272;28;20050;-76
2023/06/15 04:13:00;;;;;;;23.25;19.23;;;14.90;99.90;;;14.37;100.00;101306.88;4167039;28;20029;-76
2023/06/15 04:15:01;;;;;;;21.65;17.83;;;14.90;99.90;;;14.25;100.00;101289.59;4150410;28;20030;-77
2023/06/15 04:17:03;;;;;;;22.77;18.23;;;14.80;99.90;;;14.33;100.00;101305.59;4166721;28;20052;-76
2023/06/15 04:19:04;;;;;;;20.08;17.27;;;14.90;99.90;;;14.31;100.00;101307.53;4166971;28;20026;-77
2023/06/15 04:21:05;;;;;;;19.00;16.23;;;14.90;99.90;;;14.33;100.00;101310.06;4167169;28;20038;-77
2023/06/15 04:23:05;;;;;;;16.95;15.25;;;14.80;99.90;;;14.31;100.00;101310.19;4185591;28;20052;-76
2023/06/15 04:25:07;;;;;;;20.90;17.92;;;14.80;99.90;;;14.30;100.00;101321.81;4169791;28;20030;-76
2023/06/15 04:27:12;;;;;;;21.27;17.48;;;14.90;99.90;;;14.31;100.00;101323.44;4187556;28;20021;-76
2023/06/15 04:29:13;;;;;;;19.58;16.83;;;14.90;99.90;;;14.32;100.00;101322.50;4187563;28;20035;-76
2023/06/15 04:31:14;;;;;;;22.42;17.50;;;14.80;99.90;;;14.31;100.00;101328.75;4186338;28;20052;-76
2023/06/15 04:33:15;;;;;;;27.20;18.58;;;14.80;99.90;;;14.32;100.00;101332.25;4169218;28;20049;-76
2023/06/15 04:35:17;;;;;;;18.60;16.70;;;14.80;99.90;;;14.25;100.00;101324.09;4169614;28;20512;-76
2023/06/15 04:37:18;;;;;;;23.58;18.95;;;14.80;99.90;;;14.30;100.00;101340.38;4169427;28;20073;-76
2023/06/15 04:39:25;;;;;;;25.00;19.33;;;14.80;99.90;;;14.29;100.00;101332.56;4169578;28;20017;-76
2023/06/15 04:41:29;;;;;;;23.15;19.45;;;14.80;99.90;;;14.26;100.00;101341.69;4187358;28;20033;-76
2023/06/15 04:43:30;;;;;;;24.15;18.05;;;14.80;99.90;;;14.27;100.00;101334.56;4170123;28;20567;-76
2023/06/15 04:45:31;;;;;;;22.98;17.75;;;14.80;99.90;;;14.28;100.00;101342.34;4169630;28;20021;-77
2023/06/15 04:47:32;;;;;;;23.75;18.92;;;14.80;99.90;;;14.28;100.00;101339.69;4169413;28;20032;-76
2023/06/15 04:49:33;;;;;;;22.65;17.23;;;14.80;99.90;;;14.27;100.00;101340.72;4169639;28;20029;-76
2023/06/15 04:51:34;;;;;;;27.52;18.27;;;14.80;99.90;;;14.28;100.00;101345.00;4169416;28;20560;-76
2023/06/15 04:53:35;;;;;;;25.20;16.75;;;14.80;99.90;;;14.27;100.00;101346.03;4169270;28;20076;-76
2023/06/15 04:55:36;;;;;;;21.38;17.25;;;14.80;99.90;;;14.26;100.00;101346.16;4187317;28;20045;-76
2023/06/15 04:57:37;;;;;;;27.25;17.98;;;14.80;99.90;;;14.26;100.00;101341.69;4186715;28;20033;-76
2023/06/15 04:59:38;;;;;;;27.55;17.52;;;14.80;99.90;;;14.28;100.00;101345.00;4169125;28;20060;-77
2023/06/15 05:01:39;;;;;;;23.60;16.85;;;14.80;99.90;;;14.30;100.00;101345.69;4169299;28;20105;-76
2023/06/15 05:03:40;;;;;;;23.85;17.63;;;14.80;99.90;;;14.30;100.00;101344.84;4186766;28;20025;-77
2023/06/15 05:05:41;;;;;;;21.85;17.00;;;14.80;99.90;;;14.35;100.00;101350.53;4202194;28;20035;-77
2023/06/15 05:07:42;;;;;;;21.02;17.33;;;14.90;99.90;;;14.39;100.00;101350.00;4152714;28;20022;-77
2023/06/15 05:09:43;;;;;;;21.65;16.85;;;14.90;99.90;;;14.40;100.00;101348.19;4186869;28;20100;-76
2023/06/15 05:11:43;;;;;;;22.50;16.17;;;14.90;99.90;;;14.46;100.00;101352.00;4169127;28;20432;-76
2023/06/15 05:13:44;;;;;;;19.60;16.05;;;15.00;99.90;;;14.46;100.00;101352.84;4186890;28;20028;-77
2023/06/15 05:15:45;;;;;;;18.83;15.45;;;15.00;99.90;;;14.55;100.00;101362.47;4186563;28;20032;-76
2023/06/15 05:17:46;;;;;;;21.52;16.45;;;15.00;99.90;;;14.60;100.00;101361.97;4186767;28;20025;-76
2023/06/15 05:19:47;;;;;;;23.85;17.40;;;15.10;99.90;;;14.61;100.00;101361.78;4169034;28;20026;-76
2023/06/15 05:21:50;;;;;;;20.95;16.33;;;15.10;99.90;;;14.73;100.00;101367.59;4168841;28;20065;-76
2023/06/15 05:23:51;;;;;;;17.15;15.35;;;15.20;99.90;;;14.75;100.00;101368.28;4186484;28;20032;-76
2023/06/15 05:25:52;;;;;;;18.98;15.15;;;15.20;99.90;;;14.77;100.00;101361.78;4202165;28;20021;-76
2023/06/15 05:27:54;;;;;;;23.80;15.35;;;15.30;99.90;;;14.82;100.00;101366.59;4185249;28;20504;-76
2023/06/15 05:29:55;;;;;;;20.42;15.23;;;15.30;99.90;;;14.84;100.00;101367.25;4168887;28;20037;-76
2023/06/15 05:31:57;;;;;;;20.48;15.25;;;15.40;99.90;;;14.94;100.00;101373.22;4168433;28;20456;-76
2023/06/15 05:33:58;;;;;;;23.13;15.40;;;15.40;99.90;;;14.96;100.00;101371.22;4185270;28;20025;-76
2023/06/15 05:35:58;;;;;;;17.55;15.45;;;15.50;99.90;;;14.99;100.00;101370.91;4152300;28;20030;-76
2023/06/15 05:38:00;;;;;;;21.83;15.52;;;15.40;99.90;;;14.98;100.00;101371.88;4186064;28;20087;-77
2023/06/15 05:40:02;;;;;;;25.02;16.75;;;15.50;99.90;;;15.07;100.00;101378.00;4186186;28;20029;-77
2023/06/15 05:42:03;;;;;;;17.55;14.30;;;15.50;99.90;;;15.09;100.00;101366.19;4168698;28;20401;-77
2023/06/15 05:44:04;;;;;;;22.02;15.88;;;15.60;99.90;;;15.17;100.00;101384.78;4186328;28;20024;-77
2023/06/15 05:46:05;;;;;;;17.42;14.73;;;15.60;99.90;;;15.16;100.00;101382.31;4201459;28;20516;-77
2023/06/15 05:48:06;;;;;;;19.30;15.20;;;15.70;99.90;;;15.23;100.00;101384.09;4185984;28;20036;-77
2023/06/15 05:50:07;;;;;;;20.30;15.38;;;15.70;99.90;;;15.31;100.00;101385.91;4168541;28;20037;-77
2023/06/15 05:52:08;;;;;;;17.60;15.43;;;15.80;99.90;;;15.35;100.00;101388.03;4170402;28;20039;-77
2023/06/15 05:54:09;;;;;;;21.02;15.63;;;15.80;99.90;;;15.30;100.00;101369.13;4168362;28;20028;-77
2023/06/15 05:56:11;;;;;;;18.48;15.75;;;15.90;99.90;;;15.47;100.00;101383.25;4185181;28;20029;-76
2023/06/15 05:58:11;;;;;;;19.38;13.75;;;15.90;99.90;;;15.48;100.00;101383.06;4185949;28;20056;-78
2023/06/15 06:00:13;;;;;;;19.30;13.82;;;16.00;99.90;;;15.54;100.00;101383.38;4168473;28;20033;-78
2023/06/15 06:02:14;;;;;;;18.63;14.25;;;16.00;99.90;;;15.62;100.00;101394.78;4168269;28;20053;-77
2023/06/15 06:04:15;;;;;;;16.08;12.88;;;16.10;99.90;;;15.67;100.00;101394.28;4185697;28;20021;-77
2023/06/15 06:06:16;;;;;;;16.65;13.07;;;16.10;99.90;;;15.70;100.00;101386.78;4168329;28;20448;-77
2023/06/15 06:08:18;;;;;;;18.13;14.65;;;16.20;99.90;;;15.79;100.00;101395.56;4168138;28;20080;-77
2023/06/15 06:10:20;;;;;;;16.67;13.40;;;16.20;99.90;;;15.74;100.00;101380.09;4185940;28;20032;-77
2023/06/15 06:12:20;;;;;;;17.65;13.45;;;16.30;99.90;;;15.88;100.00;101395.34;4168172;28;20029;-77
2023/06/15 06:14:21;;;;;;;17.63;13.68;;;16.30;99.90;;;15.86;100.00;101393.88;4168108;28;20026;-78
2023/06/15 06:16:22;;;;;;;13.57;11.43;;;16.40;99.90;;;16.00;100.00;101396.63;4167965;28;20467;-77
2023/06/15 06:18:23;;;;;;;20.10;13.90;;;16.50;99.90;;;16.04;100.00;101399.72;4185747;28;20055;-78
2023/06/15 06:20:24;;;;;;;18.90;14.07;;;16.50;99.90;;;16.22;100.00;101402.16;4167794;28;20032;-77
2023/06/15 06:22:25;;;;;;;17.50;12.57;;;16.60;99.90;;;16.28;100.00;101404.91;4185594;28;20430;-78
2023/06/15 06:24:26;;;;;;;13.25;10.57;;;16.60;99.90;;;16.37;100.00;101411.00;4185921;28;20029;-78
2023/06/15 06:26:27;;;;;;;15.07;11.18;;;16.70;99.90;;;16.40;100.00;101414.13;4185650;28;20099;-77
2023/06/15 06:28:28;;;;;;;18.08;11.90;;;16.80;99.90;;;16.41;100.00;101413.16;4185203;28;20033;-78
2023/06/15 06:30:29;;;;;;;16.95;11.88;;;16.80;99.90;;;16.37;100.00;101406.50;4167981;28;20029;-77
2023/06/15 06:32:30;;;;;;;16.13;12.68;;;16.80;99.90;;;16.45;100.00;101414.47;4185805;28;20033;-78
2023/06/15 06:34:31;;;;;;;15.35;12.80;;;16.90;99.90;;;16.43;100.00;101395.16;4167804;28;20394;-77
2023/06/15 06:36:32;;;;;;;12.48;9.82;;;17.00;99.90;;;16.57;100.00;101404.25;4185536;28;20069;-78
2023/06/15 06:38:34;;;;;;;12.98;11.50;;;17.00;99.90;;;16.68;100.00;101413.63;4167655;28;20029;-77
2023/06/15 06:40:35;;;;;;;15.73;13.48;;;17.10;99.90;;;16.67;100.00;101404.81;4184332;28;20044;-77
2023/06/15 06:42:36;;;;;;;20.00;13.43;;;17.10;99.90;;;16.71;100.00;101410.59;4151317;28;20021;-78
2023/06/15 06:44:37;;;;;;;18.15;13.13;;;17.20;99.90;;;16.78;100.00;101411.56;4185219;28;20435;-78
2023/06/15 06:46:38;;;;;;;15.10;11.48;;;17.20;99.90;;;16.83;100.00;101409.16;4167119;28;20113;-77
2023/06/15 06:48:39;;;;;;;17.15;11.90;;;17.30;99.90;;;16.90;100.00;101418.09;4185386;28;20017;-77
2023/06/15 06:50:40;;;;;;;18.58;13.63;;;17.30;99.90;;;16.83;100.00;101401.19;4185302;28;20033;-77
2023/06/15 06:52:44;;;;;;;15.52;12.23;;;17.40;99.90;;;16.89;100.00;101405.78;4167262;28;20025;-77
2023/06/15 06:54:45;;;;;;;14.77;11.55;;;17.40;99.90;;;17.06;100.00;101417.94;4167972;28;20108;-78
2023/06/15 06:56:46;;;;;;;15.88;12.10;;;17.50;99.90;;;17.13;100.00;101419.72;4185256;28;20029;-77
2023/06/15 06:58:47;;;;;;;19.80;15.43;;;17.50;99.90;;;17.39;100.00;101411.25;4183672;28;20057;-77
2023/06/15 07:00:48;;;;;;;20.23;14.40;;;17.60;99.90;;;17.62;100.00;101419.22;4151207;28;20033;-78
2023/06/15 07:02:49;;;;;;;20.35;13.20;;;17.70;99.90;;;17.72;100.00;101416.22;4184070;28;20056;-79
2023/06/15 07:04:50;;;;;;;15.93;12.02;;;17.80;99.90;;;17.73;100.00;101412.56;4185088;28;20034;-78
2023/06/15 07:06:51;;;;;;;14.85;12.07;;;17.90;99.90;;;17.64;100.00;101412.66;4167524;28;20528;-78
2023/06/15 07:08:52;;;;;;;15.43;11.55;;;18.00;99.90;;;17.75;100.00;101422.03;4184754;28;20024;-77
2023/06/15 07:10:52;;;;;;;14.23;11.85;;;18.00;99.90;;;17.85;100.00;101424.41;4185188;28;20033;-77
2023/06/15 07:12:55;;;;;;;17.52;12.10;;;18.10;99.90;;;17.96;100.00;101426.59;4185077;28;20106;-77
2023/06/15 07:14:56;;;;;;;15.55;12.63;;;18.10;99.90;;;17.97;100.00;101429.09;4185064;28;20029;-78
2023/06/15 07:16:57;;;;;;;19.42;14.45;;;18.20;99.90;;;17.88;100.00;101418.69;4184971;28;20028;-77
2023/06/15 07:18:58;;;;;;;14.75;13.05;;;18.20;99.90;;;17.89;100.00;101431.84;4185340;28;20472;-77
2023/06/15 07:20:59;;;;;;;15.57;11.27;;;18.30;99.90;;;17.91;100.00;101429.00;4185229;28;20037;-77
2023/06/15 07:23:00;;;;;;;13.82;10.90;;;18.30;99.90;;;17.85;100.00;101411.91;4184667;28;20075;-77
2023/06/15 07:25:01;;;;;;;12.75;10.45;;;18.30;99.90;;;18.03;100.00;101424.84;4185041;28;20476;-77
2023/06/15 07:27:02;;;;;;;14.88;10.93;;;18.40;99.90;;;18.12;100.00;101434.41;4200206;28;20024;-77
2023/06/15 07:29:03;;;;;;;15.85;12.95;;;18.50;99.90;;;18.13;100.00;101434.19;4185016;28;20103;-77
2023/06/15 07:31:04;;;;;;;13.55;11.00;;;18.50;99.90;;;18.23;100.00;101436.56;4184917;28;20021;-78
2023/06/15 07:33:05;;;;;;;16.77;13.82;;;18.60;99.90;;;18.28;100.00;101426.13;4150970;28;20037;-77
2023/06/15 07:35:06;;;;;;;20.38;15.25;;;18.70;99.90;;;18.29;100.00;101425.13;4184686;28;20025;-77
2023/06/15 07:37:07;;;;;;;14.52;12.15;;;18.70;99.90;;;18.38;100.00;101424.00;4167141;28;20034;-77
2023/06/15 07:39:07;;;;;;;16.10;12.10;;;18.80;99.90;;;18.43;100.00;101429.56;4167176;28;20100;-78
2023/06/15 07:41:08;;;;;;;14.32;11.82;;;18.80;99.90;;;18.53;100.00;101429.28;4166826;28;20026;-78
2023/06/15 07:43:10;;;;;;;14.43;12.20;;;19.00;99.90;;;18.63;100.00;101441.34;4184377;28;20510;-76
2023/06/15 07:45:11;;;;;;;17.15;11.90;;;19.00;99.90;;;18.77;100.00;101431.56;4186543;28;20033;-77
2023/06/15 07:47:12;;;;;;;13.70;10.55;;;19.10;99.90;;;18.79;100.00;101424.19;4167306;28;20472;-77
2023/06/15 07:49:12;;;;;;;17.60;13.55;;;19.20;99.90;;;18.95;100.00;101444.47;4167184;28;20032;-77
2023/06/15 07:51:13;;;;;;;16.10;12.70;;;19.30;99.90;;;19.07;100.00;101437.56;4184738;28;20434;-76
2023/06/15 07:53:15;;;;;;;17.45;12.32;;;19.40;99.90;;;19.12;100.00;101441.31;4167093;28;20104;-77
2023/06/15 07:55:15;;;;;;;16.02;12.05;;;19.50;99.90;;;19.22;100.00;101446.34;4166923;28;20029;-77
2023/06/15 07:57:16;;;;;;;19.23;13.60;;;19.60;99.90;;;19.28;100.00;101450.91;4184787;28;20021;-77
2023/06/15 07:59:17;;;;;;;20.60;13.45;;;19.60;99.90;;;19.26;100.00;101436.91;4187556;28;20041;-77
2023/06/15 08:01:18;;;;;;;18.08;13.20;;;19.70;99.90;;;19.38;100.00;101439.84;4188011;28;20029;-76
2023/06/15 08:03:19;;;;;;;17.27;12.43;;;19.70;99.90;;;19.46;100.00;101442.41;4170184;28;20029;-77
2023/06/15 08:05:20;;;;;;;16.02;13.35;;;19.80;99.90;;;19.52;100.00;101425.56;4170236;28;20033;-76
2023/06/15 08:07:21;;;;;;;13.23;10.23;;;19.90;99.90;;;19.66;100.00;101432.63;4187435;28;20082;-76
2023/06/15 08:09:22;;;;;;;15.45;11.40;;;20.00;99.90;;;19.80;100.00;101437.84;4169839;28;20501;-76